sensor_id;sensor_type;location;lat;lon;timestamp;P1;durP1;ratioP1;P2;durP2;ratioP2
57225;SDS011;43082;43.568;22.256;2022-10-16T00:01:17;26.45;;;14.80;;
57225;SDS011;43082;43.568;22.256;2022-10-16T00:03:44;26.48;;;14.90;;
57225;SDS011;43082;43.568;22.256;2022-10-16T00:06:10;24.50;;;14.73;;
57225;SDS011;43082;43.568;22.256;2022-10-16T00:08:37;25.05;;;14.90;;
57225;SDS011;43082;43.568;22.256;2022-10-16T00:11:10;23.98;;;13.70;;
57225;SDS011;43082;43.568;22.256;2022-10-16T00:13:38;24.50;;;13.95;;
57225;SDS011;43082;43.568;22.256;2022-10-16T00:16:05;26.35;;;14.63;;
57225;SDS011;43082;43.568;22.256;2022-10-16T00:18:31;23.55;;;12.43;;
57225;SDS011;43082;43.568;22.256;2022-10-16T00:21:01;15.80;;;9.30;;
57225;SDS011;43082;43.568;22.256;2022-10-16T00:23:30;15.13;;;7.82;;
57225;SDS011;43082;43.568;22.256;2022-10-16T00:25:57;15.40;;;7.75;;
57225;SDS011;43082;43.568;22.256;2022-10-16T00:28:24;13.65;;;7.30;;
57225;SDS011;43082;43.568;22.256;2022-10-16T00:30:50;15.23;;;8.57;;
57225;SDS011;43082;43.568;22.256;2022-10-16T00:33:15;15.95;;;8.68;;
57225;SDS011;43082;43.568;22.256;2022-10-16T00:35:41;15.68;;;9.23;;
57225;SDS011;43082;43.568;22.256;2022-10-16T00:38:06;17.20;;;8.15;;
57225;SDS011;43082;43.568;22.256;2022-10-16T00:40:32;17.73;;;9.90;;
57225;SDS011;43082;43.568;22.256;2022-10-16T00:42:57;16.58;;;10.55;;
57225;SDS011;43082;43.568;22.256;2022-10-16T00:45:23;16.63;;;10.82;;
57225;SDS011;43082;43.568;22.256;2022-10-16T00:47:49;14.52;;;9.90;;
57225;SDS011;43082;43.568;22.256;2022-10-16T00:50:24;13.38;;;8.55;;
57225;SDS011;43082;43.568;22.256;2022-10-16T00:52:53;13.88;;;8.55;;
57225;SDS011;43082;43.568;22.256;2022-10-16T00:55:19;14.70;;;8.18;;
57225;SDS011;43082;43.568;22.256;2022-10-16T00:57:45;18.05;;;8.73;;
57225;SDS011;43082;43.568;22.256;2022-10-16T01:00:13;15.50;;;9.48;;
57225;SDS011;43082;43.568;22.256;2022-10-16T01:02:42;15.90;;;8.27;;
57225;SDS011;43082;43.568;22.256;2022-10-16T01:05:07;14.32;;;8.25;;
57225;SDS011;43082;43.568;22.256;2022-10-16T01:07:39;15.13;;;8.23;;
57225;SDS011;43082;43.568;22.256;2022-10-16T01:13:18;17.75;;;10.50;;
57225;SDS011;43082;43.568;22.256;2022-10-16T01:16:04;18.52;;;10.60;;
57225;SDS011;43082;43.568;22.256;2022-10-16T01:21:24;13.43;;;7.13;;
57225;SDS011;43082;43.568;22.256;2022-10-16T01:23:59;13.63;;;7.38;;
57225;SDS011;43082;43.568;22.256;2022-10-16T01:29:15;12.32;;;7.20;;
57225;SDS011;43082;43.568;22.256;2022-10-16T01:31:44;15.88;;;7.40;;
57225;SDS011;43082;43.568;22.256;2022-10-16T01:34:27;15.35;;;7.80;;
57225;SDS011;43082;43.568;22.256;2022-10-16T01:37:00;17.00;;;8.55;;
57225;SDS011;43082;43.568;22.256;2022-10-16T01:39:30;16.75;;;8.45;;
57225;SDS011;43082;43.568;22.256;2022-10-16T01:42:01;15.52;;;7.60;;
57225;SDS011;43082;43.568;22.256;2022-10-16T01:44:34;13.20;;;5.60;;
57225;SDS011;43082;43.568;22.256;2022-10-16T01:47:01;12.65;;;6.43;;
57225;SDS011;43082;43.568;22.256;2022-10-16T01:49:28;12.30;;;6.40;;
57225;SDS011;43082;43.568;22.256;2022-10-16T01:51:56;11.38;;;6.07;;
57225;SDS011;43082;43.568;22.256;2022-10-16T01:54:25;12.20;;;6.65;;
57225;SDS011;43082;43.568;22.256;2022-10-16T01:56:52;12.13;;;6.03;;
57225;SDS011;43082;43.568;22.256;2022-10-16T01:59:20;12.35;;;6.25;;
57225;SDS011;43082;43.568;22.256;2022-10-16T02:01:54;14.05;;;6.50;;
57225;SDS011;43082;43.568;22.256;2022-10-16T02:04:29;13.65;;;7.30;;
57225;SDS011;43082;43.568;22.256;2022-10-16T02:09:22;13.80;;;7.40;;
57225;SDS011;43082;43.568;22.256;2022-10-16T02:11:47;12.02;;;6.82;;
57225;SDS011;43082;43.568;22.256;2022-10-16T02:14:14;12.27;;;6.45;;
57225;SDS011;43082;43.568;22.256;2022-10-16T02:16:44;12.20;;;5.75;;
57225;SDS011;43082;43.568;22.256;2022-10-16T02:19:11;13.25;;;6.82;;
57225;SDS011;43082;43.568;22.256;2022-10-16T02:21:44;13.27;;;5.78;;
57225;SDS011;43082;43.568;22.256;2022-10-16T02:27:01;11.05;;;5.40;;
57225;SDS011;43082;43.568;22.256;2022-10-16T02:29:33;11.93;;;5.22;;
57225;SDS011;43082;43.568;22.256;2022-10-16T02:32:04;16.20;;;8.18;;
57225;SDS011;43082;43.568;22.256;2022-10-16T02:34:31;13.55;;;7.28;;
57225;SDS011;43082;43.568;22.256;2022-10-16T02:36:58;12.00;;;5.85;;
57225;SDS011;43082;43.568;22.256;2022-10-16T02:39:26;13.32;;;5.88;;
57225;SDS011;43082;43.568;22.256;2022-10-16T02:41:53;11.57;;;6.03;;
57225;SDS011;43082;43.568;22.256;2022-10-16T02:44:18;12.75;;;6.13;;
57225;SDS011;43082;43.568;22.256;2022-10-16T02:46:44;11.68;;;5.80;;
57225;SDS011;43082;43.568;22.256;2022-10-16T02:49:09;10.32;;;5.18;;
57225;SDS011;43082;43.568;22.256;2022-10-16T02:51:35;10.43;;;4.72;;
57225;SDS011;43082;43.568;22.256;2022-10-16T02:54:01;8.50;;;4.70;;
57225;SDS011;43082;43.568;22.256;2022-10-16T02:56:27;11.50;;;4.72;;
57225;SDS011;43082;43.568;22.256;2022-10-16T02:58:52;9.82;;;4.47;;
57225;SDS011;43082;43.568;22.256;2022-10-16T03:01:18;9.52;;;4.75;;
57225;SDS011;43082;43.568;22.256;2022-10-16T03:03:43;11.75;;;4.82;;
57225;SDS011;43082;43.568;22.256;2022-10-16T03:06:09;10.40;;;5.15;;
57225;SDS011;43082;43.568;22.256;2022-10-16T03:08:34;12.35;;;5.85;;
57225;SDS011;43082;43.568;22.256;2022-10-16T03:10:59;10.65;;;6.07;;
57225;SDS011;43082;43.568;22.256;2022-10-16T03:13:25;11.90;;;6.13;;
57225;SDS011;43082;43.568;22.256;2022-10-16T03:15:50;12.02;;;6.28;;
57225;SDS011;43082;43.568;22.256;2022-10-16T03:18:16;15.57;;;6.93;;
57225;SDS011;43082;43.568;22.256;2022-10-16T03:20:44;16.60;;;8.98;;
57225;SDS011;43082;43.568;22.256;2022-10-16T03:23:10;14.95;;;7.25;;
57225;SDS011;43082;43.568;22.256;2022-10-16T03:25:35;11.98;;;5.90;;
57225;SDS011;43082;43.568;22.256;2022-10-16T03:28:01;12.73;;;6.13;;
57225;SDS011;43082;43.568;22.256;2022-10-16T03:30:26;15.05;;;6.18;;
57225;SDS011;43082;43.568;22.256;2022-10-16T03:32:52;12.05;;;5.88;;
57225;SDS011;43082;43.568;22.256;2022-10-16T03:35:22;11.73;;;6.47;;
57225;SDS011;43082;43.568;22.256;2022-10-16T03:37:48;10.98;;;6.32;;
57225;SDS011;43082;43.568;22.256;2022-10-16T03:40:14;13.23;;;7.25;;
57225;SDS011;43082;43.568;22.256;2022-10-16T03:42:40;12.35;;;6.60;;
57225;SDS011;43082;43.568;22.256;2022-10-16T03:45:05;13.05;;;6.95;;
57225;SDS011;43082;43.568;22.256;2022-10-16T03:47:31;15.50;;;6.65;;
57225;SDS011;43082;43.568;22.256;2022-10-16T03:49:58;17.42;;;6.72;;
57225;SDS011;43082;43.568;22.256;2022-10-16T03:52:23;11.90;;;6.65;;
57225;SDS011;43082;43.568;22.256;2022-10-16T03:54:49;14.75;;;7.32;;
57225;SDS011;43082;43.568;22.256;2022-10-16T03:57:14;14.07;;;6.85;;
57225;SDS011;43082;43.568;22.256;2022-10-16T03:59:40;12.63;;;6.68;;
57225;SDS011;43082;43.568;22.256;2022-10-16T04:02:05;13.68;;;7.75;;
57225;SDS011;43082;43.568;22.256;2022-10-16T04:04:31;16.48;;;7.60;;
57225;SDS011;43082;43.568;22.256;2022-10-16T04:06:56;16.90;;;6.78;;
57225;SDS011;43082;43.568;22.256;2022-10-16T04:09:21;14.43;;;5.82;;
57225;SDS011;43082;43.568;22.256;2022-10-16T04:11:47;12.70;;;6.28;;
57225;SDS011;43082;43.568;22.256;2022-10-16T04:14:12;14.30;;;6.03;;
57225;SDS011;43082;43.568;22.256;2022-10-16T04:16:38;11.05;;;5.80;;
57225;SDS011;43082;43.568;22.256;2022-10-16T04:19:03;11.77;;;5.90;;
57225;SDS011;43082;43.568;22.256;2022-10-16T04:21:29;12.25;;;5.82;;
57225;SDS011;43082;43.568;22.256;2022-10-16T04:23:54;10.57;;;4.97;;
57225;SDS011;43082;43.568;22.256;2022-10-16T04:26:19;9.68;;;5.18;;
57225;SDS011;43082;43.568;22.256;2022-10-16T04:28:45;10.93;;;5.57;;
57225;SDS011;43082;43.568;22.256;2022-10-16T04:31:10;9.55;;;5.38;;
57225;SDS011;43082;43.568;22.256;2022-10-16T04:33:36;10.35;;;6.00;;
57225;SDS011;43082;43.568;22.256;2022-10-16T04:36:02;13.40;;;6.70;;
57225;SDS011;43082;43.568;22.256;2022-10-16T04:38:28;12.30;;;6.55;;
57225;SDS011;43082;43.568;22.256;2022-10-16T04:40:53;15.57;;;8.00;;
57225;SDS011;43082;43.568;22.256;2022-10-16T04:43:19;15.73;;;8.68;;
57225;SDS011;43082;43.568;22.256;2022-10-16T04:45:45;15.63;;;8.13;;
57225;SDS011;43082;43.568;22.256;2022-10-16T04:48:10;13.07;;;7.32;;
57225;SDS011;43082;43.568;22.256;2022-10-16T04:50:36;14.77;;;7.40;;
57225;SDS011;43082;43.568;22.256;2022-10-16T04:53:01;17.00;;;7.80;;
57225;SDS011;43082;43.568;22.256;2022-10-16T04:55:27;17.17;;;9.40;;
57225;SDS011;43082;43.568;22.256;2022-10-16T04:57:52;17.05;;;10.00;;
57225;SDS011;43082;43.568;22.256;2022-10-16T05:00:18;17.80;;;9.70;;
57225;SDS011;43082;43.568;22.256;2022-10-16T05:02:43;20.35;;;11.30;;
57225;SDS011;43082;43.568;22.256;2022-10-16T05:05:09;20.15;;;11.50;;
57225;SDS011;43082;43.568;22.256;2022-10-16T05:07:34;26.33;;;14.85;;
57225;SDS011;43082;43.568;22.256;2022-10-16T05:10:00;18.33;;;10.73;;
57225;SDS011;43082;43.568;22.256;2022-10-16T05:12:25;17.63;;;9.63;;
57225;SDS011;43082;43.568;22.256;2022-10-16T05:14:50;15.10;;;7.13;;
57225;SDS011;43082;43.568;22.256;2022-10-16T05:17:16;12.52;;;6.43;;
57225;SDS011;43082;43.568;22.256;2022-10-16T05:19:41;13.70;;;6.28;;
57225;SDS011;43082;43.568;22.256;2022-10-16T05:22:07;15.90;;;7.68;;
57225;SDS011;43082;43.568;22.256;2022-10-16T05:24:32;15.32;;;9.52;;
57225;SDS011;43082;43.568;22.256;2022-10-16T05:26:58;17.00;;;10.05;;
57225;SDS011;43082;43.568;22.256;2022-10-16T05:29:23;18.27;;;10.18;;
57225;SDS011;43082;43.568;22.256;2022-10-16T05:31:52;16.58;;;10.70;;
57225;SDS011;43082;43.568;22.256;2022-10-16T05:34:19;18.23;;;11.45;;
57225;SDS011;43082;43.568;22.256;2022-10-16T05:36:45;21.05;;;12.50;;
57225;SDS011;43082;43.568;22.256;2022-10-16T05:39:11;24.75;;;12.77;;
57225;SDS011;43082;43.568;22.256;2022-10-16T05:41:37;22.50;;;12.73;;
57225;SDS011;43082;43.568;22.256;2022-10-16T05:44:05;26.15;;;13.57;;
57225;SDS011;43082;43.568;22.256;2022-10-16T05:46:31;25.65;;;15.73;;
57225;SDS011;43082;43.568;22.256;2022-10-16T05:48:57;29.30;;;18.13;;
57225;SDS011;43082;43.568;22.256;2022-10-16T05:51:23;31.90;;;20.08;;
57225;SDS011;43082;43.568;22.256;2022-10-16T05:53:48;39.80;;;25.85;;
57225;SDS011;43082;43.568;22.256;2022-10-16T05:56:14;35.38;;;22.08;;
57225;SDS011;43082;43.568;22.256;2022-10-16T05:58:40;38.67;;;22.80;;
57225;SDS011;43082;43.568;22.256;2022-10-16T06:01:07;38.22;;;23.90;;
57225;SDS011;43082;43.568;22.256;2022-10-16T06:03:36;61.08;;;38.60;;
57225;SDS011;43082;43.568;22.256;2022-10-16T06:06:15;56.28;;;34.50;;
57225;SDS011;43082;43.568;22.256;2022-10-16T06:08:42;40.33;;;26.70;;
57225;SDS011;43082;43.568;22.256;2022-10-16T06:11:09;43.72;;;29.17;;
57225;SDS011;43082;43.568;22.256;2022-10-16T06:13:36;43.30;;;29.27;;
57225;SDS011;43082;43.568;22.256;2022-10-16T06:16:02;45.30;;;28.02;;
57225;SDS011;43082;43.568;22.256;2022-10-16T06:18:28;57.17;;;36.75;;
57225;SDS011;43082;43.568;22.256;2022-10-16T06:20:55;53.95;;;36.50;;
57225;SDS011;43082;43.568;22.256;2022-10-16T06:23:20;53.42;;;36.03;;
57225;SDS011;43082;43.568;22.256;2022-10-16T06:25:46;83.43;;;55.17;;
57225;SDS011;43082;43.568;22.256;2022-10-16T06:28:12;91.80;;;59.45;;
57225;SDS011;43082;43.568;22.256;2022-10-16T06:30:39;34.70;;;24.00;;
57225;SDS011;43082;43.568;22.256;2022-10-16T06:33:04;38.38;;;25.50;;
57225;SDS011;43082;43.568;22.256;2022-10-16T06:35:30;41.35;;;27.88;;
57225;SDS011;43082;43.568;22.256;2022-10-16T06:37:57;34.17;;;24.40;;
57225;SDS011;43082;43.568;22.256;2022-10-16T06:40:22;32.15;;;22.38;;
57225;SDS011;43082;43.568;22.256;2022-10-16T06:42:48;27.73;;;18.38;;
57225;SDS011;43082;43.568;22.256;2022-10-16T06:45:13;24.15;;;18.05;;
57225;SDS011;43082;43.568;22.256;2022-10-16T06:47:39;27.02;;;20.05;;
57225;SDS011;43082;43.568;22.256;2022-10-16T06:50:04;29.67;;;21.42;;
57225;SDS011;43082;43.568;22.256;2022-10-16T06:52:32;30.90;;;21.58;;
57225;SDS011;43082;43.568;22.256;2022-10-16T06:54:58;30.15;;;22.10;;
57225;SDS011;43082;43.568;22.256;2022-10-16T06:57:23;30.92;;;20.83;;
57225;SDS011;43082;43.568;22.256;2022-10-16T06:59:49;28.02;;;20.67;;
57225;SDS011;43082;43.568;22.256;2022-10-16T07:02:14;30.85;;;21.85;;
57225;SDS011;43082;43.568;22.256;2022-10-16T07:04:40;31.02;;;21.75;;
57225;SDS011;43082;43.568;22.256;2022-10-16T07:07:05;32.55;;;22.52;;
57225;SDS011;43082;43.568;22.256;2022-10-16T07:09:30;33.92;;;24.90;;
57225;SDS011;43082;43.568;22.256;2022-10-16T07:11:56;30.20;;;20.55;;
57225;SDS011;43082;43.568;22.256;2022-10-16T07:14:22;19.10;;;14.40;;
57225;SDS011;43082;43.568;22.256;2022-10-16T07:16:47;26.83;;;18.75;;
57225;SDS011;43082;43.568;22.256;2022-10-16T07:19:14;23.75;;;14.88;;
57225;SDS011;43082;43.568;22.256;2022-10-16T07:21:41;23.55;;;15.32;;
57225;SDS011;43082;43.568;22.256;2022-10-16T07:24:10;27.45;;;18.58;;
57225;SDS011;43082;43.568;22.256;2022-10-16T07:26:38;18.85;;;13.27;;
57225;SDS011;43082;43.568;22.256;2022-10-16T07:29:04;20.40;;;13.07;;
57225;SDS011;43082;43.568;22.256;2022-10-16T07:31:32;15.18;;;9.90;;
57225;SDS011;43082;43.568;22.256;2022-10-16T07:34:01;23.70;;;15.32;;
57225;SDS011;43082;43.568;22.256;2022-10-16T07:36:26;22.30;;;14.30;;
57225;SDS011;43082;43.568;22.256;2022-10-16T07:38:52;20.70;;;12.82;;
57225;SDS011;43082;43.568;22.256;2022-10-16T07:41:18;20.95;;;13.50;;
57225;SDS011;43082;43.568;22.256;2022-10-16T07:43:45;25.27;;;14.95;;
57225;SDS011;43082;43.568;22.256;2022-10-16T07:46:15;26.48;;;17.98;;
57225;SDS011;43082;43.568;22.256;2022-10-16T07:48:41;25.42;;;17.15;;
57225;SDS011;43082;43.568;22.256;2022-10-16T07:51:10;23.55;;;13.55;;
57225;SDS011;43082;43.568;22.256;2022-10-16T07:53:36;17.38;;;9.20;;
57225;SDS011;43082;43.568;22.256;2022-10-16T07:56:02;17.45;;;9.02;;
57225;SDS011;43082;43.568;22.256;2022-10-16T07:58:30;16.00;;;9.02;;
57225;SDS011;43082;43.568;22.256;2022-10-16T08:00:56;17.27;;;10.02;;
57225;SDS011;43082;43.568;22.256;2022-10-16T08:03:22;15.15;;;9.90;;
57225;SDS011;43082;43.568;22.256;2022-10-16T08:05:48;16.75;;;9.70;;
57225;SDS011;43082;43.568;22.256;2022-10-16T08:08:14;15.13;;;9.10;;
57225;SDS011;43082;43.568;22.256;2022-10-16T08:10:40;16.10;;;9.27;;
57225;SDS011;43082;43.568;22.256;2022-10-16T08:13:06;20.92;;;10.65;;
57225;SDS011;43082;43.568;22.256;2022-10-16T08:15:32;65.20;;;38.20;;
57225;SDS011;43082;43.568;22.256;2022-10-16T08:17:58;40.67;;;27.65;;
57225;SDS011;43082;43.568;22.256;2022-10-16T08:20:25;32.35;;;20.00;;
57225;SDS011;43082;43.568;22.256;2022-10-16T08:22:51;17.73;;;9.20;;
57225;SDS011;43082;43.568;22.256;2022-10-16T08:25:17;23.85;;;13.00;;
57225;SDS011;43082;43.568;22.256;2022-10-16T08:27:43;13.57;;;7.55;;
57225;SDS011;43082;43.568;22.256;2022-10-16T08:30:10;18.48;;;11.02;;
57225;SDS011;43082;43.568;22.256;2022-10-16T08:32:36;33.97;;;20.15;;
57225;SDS011;43082;43.568;22.256;2022-10-16T08:35:01;47.33;;;26.42;;
57225;SDS011;43082;43.568;22.256;2022-10-16T08:37:30;48.67;;;26.92;;
57225;SDS011;43082;43.568;22.256;2022-10-16T08:39:56;42.80;;;24.75;;
57225;SDS011;43082;43.568;22.256;2022-10-16T08:50:30;21.92;;;10.95;;
57225;SDS011;43082;43.568;22.256;2022-10-16T08:52:57;24.88;;;15.38;;
57225;SDS011;43082;43.568;22.256;2022-10-16T08:58:28;45.80;;;27.50;;
57225;SDS011;43082;43.568;22.256;2022-10-16T09:01:04;11.98;;;6.63;;
57225;SDS011;43082;43.568;22.256;2022-10-16T09:14:39;12.60;;;6.97;;
57225;SDS011;43082;43.568;22.256;2022-10-16T09:22:28;14.13;;;6.28;;
57225;SDS011;43082;43.568;22.256;2022-10-16T09:24:57;13.07;;;6.97;;
57225;SDS011;43082;43.568;22.256;2022-10-16T09:27:24;11.30;;;5.38;;
57225;SDS011;43082;43.568;22.256;2022-10-16T09:29:51;14.75;;;8.73;;
57225;SDS011;43082;43.568;22.256;2022-10-16T09:32:20;12.98;;;6.22;;
57225;SDS011;43082;43.568;22.256;2022-10-16T09:34:55;13.45;;;6.43;;
57225;SDS011;43082;43.568;22.256;2022-10-16T09:37:23;12.23;;;5.43;;
57225;SDS011;43082;43.568;22.256;2022-10-16T09:39:53;12.68;;;5.85;;
57225;SDS011;43082;43.568;22.256;2022-10-16T09:42:32;8.98;;;5.70;;
57225;SDS011;43082;43.568;22.256;2022-10-16T09:44:59;11.85;;;6.30;;
57225;SDS011;43082;43.568;22.256;2022-10-16T09:47:28;16.90;;;6.45;;
57225;SDS011;43082;43.568;22.256;2022-10-16T09:49:55;18.92;;;9.38;;
57225;SDS011;43082;43.568;22.256;2022-10-16T09:52:26;13.90;;;8.00;;
57225;SDS011;43082;43.568;22.256;2022-10-16T09:54:52;11.20;;;6.55;;
57225;SDS011;43082;43.568;22.256;2022-10-16T09:57:18;14.23;;;7.65;;
57225;SDS011;43082;43.568;22.256;2022-10-16T09:59:48;31.05;;;16.35;;
57225;SDS011;43082;43.568;22.256;2022-10-16T10:02:27;26.60;;;17.48;;
57225;SDS011;43082;43.568;22.256;2022-10-16T10:04:54;11.40;;;6.03;;
57225;SDS011;43082;43.568;22.256;2022-10-16T10:07:23;10.45;;;5.80;;
57225;SDS011;43082;43.568;22.256;2022-10-16T10:09:51;13.48;;;6.38;;
57225;SDS011;43082;43.568;22.256;2022-10-16T10:12:18;24.58;;;14.70;;
57225;SDS011;43082;43.568;22.256;2022-10-16T10:14:46;12.20;;;7.15;;
57225;SDS011;43082;43.568;22.256;2022-10-16T10:17:14;16.55;;;8.73;;
57225;SDS011;43082;43.568;22.256;2022-10-16T10:19:44;12.45;;;5.93;;
57225;SDS011;43082;43.568;22.256;2022-10-16T10:22:57;11.18;;;5.53;;
57225;SDS011;43082;43.568;22.256;2022-10-16T10:35:39;10.07;;;6.00;;
57225;SDS011;43082;43.568;22.256;2022-10-16T10:41:32;8.38;;;4.72;;
57225;SDS011;43082;43.568;22.256;2022-10-16T10:44:23;11.10;;;4.90;;
57225;SDS011;43082;43.568;22.256;2022-10-16T10:47:27;9.95;;;4.20;;
57225;SDS011;43082;43.568;22.256;2022-10-16T10:52:48;10.48;;;4.00;;
57225;SDS011;43082;43.568;22.256;2022-10-16T10:55:33;9.38;;;3.92;;
57225;SDS011;43082;43.568;22.256;2022-10-16T10:58:16;11.15;;;3.95;;
57225;SDS011;43082;43.568;22.256;2022-10-16T11:06:24;9.27;;;3.83;;
57225;SDS011;43082;43.568;22.256;2022-10-16T11:08:53;7.47;;;3.42;;
57225;SDS011;43082;43.568;22.256;2022-10-16T11:11:48;9.15;;;3.50;;
57225;SDS011;43082;43.568;22.256;2022-10-16T11:14:18;8.27;;;3.67;;
57225;SDS011;43082;43.568;22.256;2022-10-16T11:16:52;8.25;;;4.00;;
57225;SDS011;43082;43.568;22.256;2022-10-16T11:27:14;10.85;;;3.80;;
57225;SDS011;43082;43.568;22.256;2022-10-16T11:30:18;8.48;;;3.50;;
57225;SDS011;43082;43.568;22.256;2022-10-16T11:33:22;7.45;;;3.50;;
57225;SDS011;43082;43.568;22.256;2022-10-16T11:38:03;9.13;;;3.60;;
57225;SDS011;43082;43.568;22.256;2022-10-16T11:40:32;11.60;;;3.20;;
57225;SDS011;43082;43.568;22.256;2022-10-16T11:46:13;8.60;;;3.20;;
57225;SDS011;43082;43.568;22.256;2022-10-16T11:48:49;7.80;;;3.38;;
57225;SDS011;43082;43.568;22.256;2022-10-16T11:51:25;6.88;;;3.03;;
57225;SDS011;43082;43.568;22.256;2022-10-16T11:56:22;7.25;;;3.10;;
57225;SDS011;43082;43.568;22.256;2022-10-16T12:01:38;7.38;;;3.00;;
57225;SDS011;43082;43.568;22.256;2022-10-16T12:06:55;7.35;;;3.20;;
57225;SDS011;43082;43.568;22.256;2022-10-16T12:09:28;8.10;;;3.45;;
57225;SDS011;43082;43.568;22.256;2022-10-16T12:11:55;8.27;;;3.10;;
57225;SDS011;43082;43.568;22.256;2022-10-16T12:14:22;6.50;;;3.00;;
57225;SDS011;43082;43.568;22.256;2022-10-16T12:17:03;7.03;;;3.10;;
57225;SDS011;43082;43.568;22.256;2022-10-16T12:20:30;7.10;;;2.85;;
57225;SDS011;43082;43.568;22.256;2022-10-16T12:22:47;6.78;;;2.88;;
57225;SDS011;43082;43.568;22.256;2022-10-16T12:25:53;7.95;;;3.33;;
57225;SDS011;43082;43.568;22.256;2022-10-16T12:30:40;8.30;;;2.95;;
57225;SDS011;43082;43.568;22.256;2022-10-16T12:33:15;7.45;;;3.00;;
57225;SDS011;43082;43.568;22.256;2022-10-16T12:35:46;7.50;;;2.60;;
57225;SDS011;43082;43.568;22.256;2022-10-16T12:38:19;9.48;;;4.45;;
57225;SDS011;43082;43.568;22.256;2022-10-16T12:40:53;6.90;;;2.97;;
57225;SDS011;43082;43.568;22.256;2022-10-16T12:46:01;6.28;;;2.58;;
57225;SDS011;43082;43.568;22.256;2022-10-16T12:48:28;6.85;;;2.80;;
57225;SDS011;43082;43.568;22.256;2022-10-16T12:50:53;6.55;;;2.85;;
57225;SDS011;43082;43.568;22.256;2022-10-16T12:53:23;8.07;;;3.30;;
57225;SDS011;43082;43.568;22.256;2022-10-16T12:58:56;6.43;;;2.80;;
57225;SDS011;43082;43.568;22.256;2022-10-16T13:01:56;6.25;;;2.50;;
57225;SDS011;43082;43.568;22.256;2022-10-16T13:15:23;6.55;;;2.58;;
57225;SDS011;43082;43.568;22.256;2022-10-16T13:17:58;8.80;;;2.95;;
57225;SDS011;43082;43.568;22.256;2022-10-16T13:20:29;6.25;;;2.83;;
57225;SDS011;43082;43.568;22.256;2022-10-16T13:25:58;10.43;;;5.00;;
57225;SDS011;43082;43.568;22.256;2022-10-16T13:28:30;8.57;;;2.80;;
57225;SDS011;43082;43.568;22.256;2022-10-16T13:30:58;8.23;;;2.83;;
57225;SDS011;43082;43.568;22.256;2022-10-16T13:33:37;5.55;;;2.50;;
57225;SDS011;43082;43.568;22.256;2022-10-16T13:36:04;7.80;;;2.70;;
57225;SDS011;43082;43.568;22.256;2022-10-16T13:38:31;6.53;;;2.42;;
57225;SDS011;43082;43.568;22.256;2022-10-16T13:41:01;8.10;;;2.80;;
57225;SDS011;43082;43.568;22.256;2022-10-16T13:43:36;6.63;;;3.03;;
57225;SDS011;43082;43.568;22.256;2022-10-16T13:46:05;6.20;;;3.35;;
57225;SDS011;43082;43.568;22.256;2022-10-16T13:48:35;8.23;;;2.90;;
57225;SDS011;43082;43.568;22.256;2022-10-16T13:51:05;6.50;;;3.17;;
57225;SDS011;43082;43.568;22.256;2022-10-16T13:53:35;7.75;;;4.10;;
57225;SDS011;43082;43.568;22.256;2022-10-16T13:56:02;8.00;;;3.70;;
57225;SDS011;43082;43.568;22.256;2022-10-16T13:58:29;7.30;;;3.55;;
57225;SDS011;43082;43.568;22.256;2022-10-16T14:00:56;8.30;;;4.00;;
57225;SDS011;43082;43.568;22.256;2022-10-16T14:03:26;8.57;;;3.60;;
57225;SDS011;43082;43.568;22.256;2022-10-16T14:05:53;10.40;;;3.67;;
57225;SDS011;43082;43.568;22.256;2022-10-16T14:08:21;10.10;;;3.65;;
57225;SDS011;43082;43.568;22.256;2022-10-16T14:10:51;6.28;;;2.90;;
57225;SDS011;43082;43.568;22.256;2022-10-16T14:18:24;7.53;;;3.28;;
57225;SDS011;43082;43.568;22.256;2022-10-16T14:20:50;6.20;;;3.00;;
57225;SDS011;43082;43.568;22.256;2022-10-16T14:23:49;10.32;;;3.40;;
57225;SDS011;43082;43.568;22.256;2022-10-16T14:28:34;8.13;;;3.40;;
57225;SDS011;43082;43.568;22.256;2022-10-16T14:31:00;8.65;;;4.20;;
57225;SDS011;43082;43.568;22.256;2022-10-16T14:36:13;7.18;;;3.20;;
57225;SDS011;43082;43.568;22.256;2022-10-16T14:38:54;8.40;;;3.80;;
57225;SDS011;43082;43.568;22.256;2022-10-16T14:41:22;8.70;;;4.82;;
57225;SDS011;43082;43.568;22.256;2022-10-16T14:43:51;9.23;;;3.70;;
57225;SDS011;43082;43.568;22.256;2022-10-16T14:46:19;9.88;;;4.70;;
57225;SDS011;43082;43.568;22.256;2022-10-16T14:48:51;9.90;;;4.13;;
57225;SDS011;43082;43.568;22.256;2022-10-16T14:51:19;9.63;;;4.18;;
57225;SDS011;43082;43.568;22.256;2022-10-16T14:53:45;7.95;;;4.03;;
57225;SDS011;43082;43.568;22.256;2022-10-16T14:58:50;10.00;;;4.90;;
57225;SDS011;43082;43.568;22.256;2022-10-16T15:01:16;8.20;;;3.95;;
57225;SDS011;43082;43.568;22.256;2022-10-16T15:03:43;6.70;;;3.00;;
57225;SDS011;43082;43.568;22.256;2022-10-16T15:06:09;7.32;;;2.90;;
57225;SDS011;43082;43.568;22.256;2022-10-16T15:08:36;7.18;;;3.20;;
57225;SDS011;43082;43.568;22.256;2022-10-16T15:11:01;7.75;;;2.90;;
57225;SDS011;43082;43.568;22.256;2022-10-16T15:13:27;8.15;;;2.88;;
57225;SDS011;43082;43.568;22.256;2022-10-16T15:15:52;8.57;;;4.07;;
57225;SDS011;43082;43.568;22.256;2022-10-16T15:18:18;9.77;;;3.97;;
57225;SDS011;43082;43.568;22.256;2022-10-16T15:20:45;9.05;;;3.60;;
57225;SDS011;43082;43.568;22.256;2022-10-16T15:23:14;9.43;;;3.17;;
57225;SDS011;43082;43.568;22.256;2022-10-16T15:25:45;9.00;;;3.38;;
57225;SDS011;43082;43.568;22.256;2022-10-16T15:28:12;8.32;;;3.15;;
57225;SDS011;43082;43.568;22.256;2022-10-16T15:30:38;10.50;;;3.90;;
57225;SDS011;43082;43.568;22.256;2022-10-16T15:33:05;7.85;;;3.50;;
57225;SDS011;43082;43.568;22.256;2022-10-16T15:35:34;8.65;;;3.90;;
57225;SDS011;43082;43.568;22.256;2022-10-16T15:38:00;11.65;;;3.72;;
57225;SDS011;43082;43.568;22.256;2022-10-16T15:40:25;8.80;;;4.63;;
57225;SDS011;43082;43.568;22.256;2022-10-16T15:42:51;8.77;;;4.22;;
57225;SDS011;43082;43.568;22.256;2022-10-16T15:45:16;8.02;;;3.13;;
57225;SDS011;43082;43.568;22.256;2022-10-16T15:47:42;9.40;;;4.20;;
57225;SDS011;43082;43.568;22.256;2022-10-16T15:50:09;8.30;;;4.13;;
57225;SDS011;43082;43.568;22.256;2022-10-16T15:52:36;12.23;;;6.13;;
57225;SDS011;43082;43.568;22.256;2022-10-16T15:55:01;8.82;;;5.53;;
57225;SDS011;43082;43.568;22.256;2022-10-16T15:57:28;9.25;;;4.00;;
57225;SDS011;43082;43.568;22.256;2022-10-16T15:59:54;9.20;;;3.45;;
57225;SDS011;43082;43.568;22.256;2022-10-16T16:02:19;7.45;;;3.60;;
57225;SDS011;43082;43.568;22.256;2022-10-16T16:04:45;10.68;;;6.45;;
57225;SDS011;43082;43.568;22.256;2022-10-16T16:07:10;11.10;;;4.43;;
57225;SDS011;43082;43.568;22.256;2022-10-16T16:09:36;12.23;;;5.38;;
57225;SDS011;43082;43.568;22.256;2022-10-16T16:12:01;10.48;;;5.07;;
57225;SDS011;43082;43.568;22.256;2022-10-16T16:14:27;10.88;;;6.20;;
57225;SDS011;43082;43.568;22.256;2022-10-16T16:16:53;18.58;;;9.57;;
57225;SDS011;43082;43.568;22.256;2022-10-16T16:19:19;22.95;;;10.98;;
57225;SDS011;43082;43.568;22.256;2022-10-16T16:21:48;27.85;;;11.63;;
57225;SDS011;43082;43.568;22.256;2022-10-16T16:24:14;20.17;;;10.00;;
57225;SDS011;43082;43.568;22.256;2022-10-16T16:26:40;19.27;;;10.13;;
57225;SDS011;43082;43.568;22.256;2022-10-16T16:29:09;49.03;;;29.55;;